createdAt,value
2018-07-02T00:01:48.744Z,1.27
2018-07-02T00:04:16.282Z,0.93
2018-07-02T00:06:55.350Z,1.27
2018-07-02T00:09:22.891Z,1.47
2018-07-02T00:11:50.412Z,1.20
2018-07-02T00:14:18.007Z,1.47
2018-07-02T00:16:45.540Z,1.37
2018-07-02T00:19:13.200Z,1.20
2018-07-02T00:21:40.724Z,1.40
2018-07-02T00:24:08.272Z,1.30
2018-07-02T00:26:35.940Z,1.23
2018-07-02T00:29:03.476Z,1.10
2018-07-02T00:31:31.047Z,1.20
2018-07-02T00:33:58.879Z,1.53
2018-07-02T00:36:26.411Z,1.10
2018-07-02T00:38:53.919Z,1.20
2018-07-02T00:41:21.458Z,1.43
2018-07-02T00:43:48.960Z,1.20
2018-07-02T00:46:16.511Z,1.50
2018-07-02T00:48:44.026Z,1.30
2018-07-02T00:51:11.560Z,1.27
2018-07-02T00:53:39.071Z,1.13
2018-07-02T00:56:06.635Z,1.30
2018-07-02T00:58:34.165Z,1.37
2018-07-02T01:01:01.705Z,1.20
2018-07-02T01:03:29.227Z,1.30
2018-07-02T01:05:56.768Z,1.00
2018-07-02T01:08:24.276Z,1.10
2018-07-02T01:10:51.811Z,1.10
2018-07-02T01:13:19.371Z,1.10
2018-07-02T01:15:46.904Z,1.00
2018-07-02T01:18:14.420Z,1.53
2018-07-02T01:20:41.989Z,1.40
2018-07-02T01:23:09.498Z,1.00
2018-07-02T01:25:37.052Z,1.60
2018-07-02T01:28:04.599Z,1.20
2018-07-02T01:30:32.153Z,1.10
2018-07-02T01:32:59.684Z,1.23
2018-07-02T01:35:27.211Z,1.40
2018-07-02T01:37:54.752Z,1.10
2018-07-02T01:40:22.264Z,1.47
2018-07-02T01:42:49.810Z,1.23
2018-07-02T01:45:17.476Z,1.03
2018-07-02T01:47:45.029Z,1.20
2018-07-02T01:50:12.545Z,1.17
2018-07-02T01:52:40.093Z,1.37
2018-07-02T01:55:07.619Z,1.33
2018-07-02T01:57:35.159Z,1.30
2018-07-02T02:00:02.768Z,1.20
2018-07-02T02:02:30.324Z,1.53
2018-07-02T02:04:57.822Z,1.40
2018-07-02T02:07:25.397Z,1.43
2018-07-02T02:09:52.904Z,1.10
2018-07-02T02:12:20.480Z,1.43
2018-07-02T02:14:48.012Z,1.27
2018-07-02T02:17:15.536Z,1.20
2018-07-02T02:19:43.103Z,1.20
2018-07-02T02:22:10.632Z,1.27
2018-07-02T02:24:38.164Z,1.27
2018-07-02T02:27:05.712Z,1.17
2018-07-02T02:29:33.258Z,1.17
2018-07-02T02:32:00.783Z,1.20
2018-07-02T02:34:28.322Z,1.20
2018-07-02T02:36:55.843Z,1.40
2018-07-02T02:39:23.389Z,1.40
2018-07-02T02:41:50.925Z,1.00
2018-07-02T02:44:18.465Z,1.23
2018-07-02T02:46:45.976Z,1.10
2018-07-02T02:49:13.509Z,1.20
2018-07-02T02:51:41.031Z,1.10
2018-07-02T02:54:08.563Z,1.30
2018-07-02T02:56:36.278Z,1.30
2018-07-02T02:59:03.887Z,1.20
2018-07-02T03:01:31.424Z,1.30
2018-07-02T03:03:59.052Z,1.23
2018-07-02T03:06:26.595Z,1.10
2018-07-02T03:08:54.115Z,1.07
2018-07-02T03:11:21.668Z,1.30
2018-07-02T03:13:49.187Z,1.03
2018-07-02T03:16:16.748Z,1.13
2018-07-02T03:18:44.263Z,1.00
2018-07-02T03:21:12.712Z,1.10
2018-07-02T03:23:40.252Z,1.10
2018-07-02T03:26:07.816Z,1.20
2018-07-02T03:28:35.360Z,1.30
2018-07-02T03:31:02.928Z,1.27
2018-07-02T03:33:30.452Z,1.00
2018-07-02T03:35:57.916Z,1.00
2018-07-02T03:38:25.440Z,1.10
2018-07-02T03:40:52.977Z,1.10
2018-07-02T03:43:20.503Z,1.40
2018-07-02T03:45:48.064Z,1.10
2018-07-02T03:48:15.592Z,1.10
2018-07-02T03:50:43.157Z,1.27
2018-07-02T03:53:10.704Z,1.20
2018-07-02T03:55:38.288Z,1.13
2018-07-02T03:58:05.852Z,1.03
2018-07-02T04:00:33.391Z,1.23
2018-07-02T04:03:00.880Z,1.00
2018-07-02T04:05:28.391Z,1.10
2018-07-02T04:07:55.945Z,1.13
2018-07-02T04:10:23.456Z,1.10
2018-07-02T04:12:51.020Z,1.47
2018-07-02T04:15:18.528Z,1.40
2018-07-02T04:17:46.104Z,1.13
2018-07-02T04:20:13.887Z,1.30
2018-07-02T04:22:41.420Z,1.00
2018-07-02T04:25:09.012Z,1.20
2018-07-02T04:27:36.774Z,1.10
2018-07-02T04:30:04.436Z,1.27
2018-07-02T04:32:32.024Z,1.27
2018-07-02T04:34:59.628Z,1.10
2018-07-02T04:37:27.251Z,1.10
2018-07-02T04:39:54.792Z,1.10
2018-07-02T04:42:22.326Z,1.13
2018-07-02T04:44:49.997Z,1.20
2018-07-02T04:47:17.568Z,1.13
2018-07-02T04:49:45.136Z,1.10
2018-07-02T04:52:12.702Z,1.50
2018-07-02T04:54:40.372Z,1.03
2018-07-02T04:57:08.031Z,1.10
2018-07-02T04:59:35.679Z,0.90
2018-07-02T05:02:03.322Z,1.10
2018-07-02T05:04:30.836Z,1.10
2018-07-02T05:06:58.460Z,1.20
2018-07-02T05:09:26.017Z,1.03
2018-07-02T05:11:53.503Z,1.23
2018-07-02T05:14:21.023Z,1.17
2018-07-02T05:16:48.560Z,1.20
2018-07-02T05:19:16.096Z,1.47
2018-07-02T05:21:43.596Z,1.17
2018-07-02T05:24:11.118Z,1.10
2018-07-02T05:26:38.636Z,1.10
2018-07-02T05:29:06.281Z,1.20
2018-07-02T05:33:22.304Z,1.30
2018-07-02T05:35:49.885Z,1.20
2018-07-02T05:38:17.584Z,1.27
2018-07-02T05:40:45.169Z,1.33
2018-07-02T05:43:12.744Z,0.70
2018-07-02T05:45:40.308Z,1.10
2018-07-02T05:48:07.865Z,0.83
2018-07-02T05:50:35.415Z,1.00
2018-07-02T05:53:02.987Z,0.90
2018-07-02T05:55:30.727Z,0.80
2018-07-02T05:57:58.095Z,0.80
2018-07-02T06:00:25.689Z,0.67
2018-07-02T06:02:53.210Z,0.70
2018-07-02T06:05:20.796Z,0.87
2018-07-02T06:07:48.576Z,0.80
2018-07-02T06:10:16.000Z,0.70
2018-07-02T06:12:43.564Z,0.60
2018-07-02T06:15:11.095Z,0.80
2018-07-02T06:17:38.616Z,0.83
2018-07-02T06:20:06.472Z,0.83
2018-07-02T06:22:34.010Z,0.70
2018-07-02T06:25:01.517Z,0.70
2018-07-02T06:27:29.100Z,0.80
2018-07-02T06:29:56.636Z,1.03
2018-07-02T06:32:24.187Z,0.83
2018-07-02T06:34:51.607Z,0.70
2018-07-02T06:37:19.164Z,0.70
2018-07-02T06:39:46.694Z,0.90
2018-07-02T06:42:14.232Z,0.77
2018-07-02T06:44:41.780Z,0.70
2018-07-02T06:47:09.284Z,1.00
2018-07-02T06:49:36.789Z,0.80
2018-07-02T06:52:04.319Z,0.67
2018-07-02T06:54:31.837Z,0.73
2018-07-02T06:56:59.407Z,0.80
2018-07-02T06:59:26.913Z,0.70
2018-07-02T07:01:54.421Z,0.80
2018-07-02T07:04:21.984Z,0.80
2018-07-02T07:06:49.597Z,0.80
2018-07-02T07:09:17.128Z,0.97
2018-07-02T07:11:44.664Z,0.83
2018-07-02T07:14:12.220Z,0.70
2018-07-02T07:16:39.808Z,0.80
2018-07-02T07:19:07.355Z,0.70
2018-07-02T07:21:34.897Z,1.10
2018-07-02T07:24:02.460Z,0.90
2018-07-02T07:26:30.020Z,0.80
2018-07-02T07:28:57.571Z,1.10
2018-07-02T07:31:25.136Z,0.97
2018-07-02T07:33:52.737Z,0.90
2018-07-02T07:36:20.344Z,0.80
2018-07-02T07:38:47.888Z,1.00
2018-07-02T07:41:15.399Z,0.80
2018-07-02T07:43:42.952Z,0.70
2018-07-02T07:46:10.560Z,0.70
2018-07-02T07:48:38.137Z,0.67
2018-07-02T07:51:05.746Z,0.83
2018-07-02T07:53:33.322Z,0.97
2018-07-02T07:56:00.940Z,0.77
2018-07-02T07:58:28.508Z,0.90
2018-07-02T08:00:56.131Z,0.90
2018-07-02T08:03:23.678Z,0.87
2018-07-02T08:05:51.321Z,1.00
2018-07-02T08:08:18.841Z,0.90
2018-07-02T08:10:46.562Z,1.00
2018-07-02T08:13:14.136Z,0.77
2018-07-02T08:15:41.708Z,0.90
2018-07-02T08:18:09.245Z,0.90
2018-07-02T08:20:36.821Z,1.00
2018-07-02T08:23:04.416Z,0.90
2018-07-02T08:25:31.973Z,1.03
2018-07-02T08:27:59.520Z,1.10
2018-07-02T08:30:27.221Z,0.90
2018-07-02T08:32:54.800Z,0.80
2018-07-02T08:35:22.293Z,0.90
2018-07-02T08:37:49.807Z,1.00
2018-07-02T08:40:17.586Z,0.90
2018-07-02T08:42:45.140Z,0.70
2018-07-02T08:45:12.663Z,0.73
2018-07-02T08:47:40.176Z,0.93
2018-07-02T08:50:07.809Z,0.80
2018-07-02T08:52:35.308Z,1.03
2018-07-02T08:55:02.889Z,0.90
2018-07-02T08:57:30.436Z,0.90
2018-07-02T08:59:57.961Z,0.80
2018-07-02T09:02:25.480Z,0.70
2018-07-02T09:04:52.993Z,1.00
2018-07-02T09:07:20.519Z,0.90
2018-07-02T09:09:48.008Z,0.90
2018-07-02T09:12:15.525Z,0.80
2018-07-02T09:14:43.083Z,1.00
2018-07-02T09:17:10.619Z,0.90
2018-07-02T09:19:38.179Z,0.80
2018-07-02T09:22:05.809Z,0.93
2018-07-02T09:24:33.353Z,0.90
2018-07-02T09:27:00.923Z,0.80
2018-07-02T09:29:28.563Z,1.00
2018-07-02T09:31:56.181Z,0.90
2018-07-02T09:34:24.080Z,1.00
2018-07-02T09:36:51.648Z,1.10
2018-07-02T09:39:19.355Z,1.23
2018-07-02T09:41:46.848Z,0.97
2018-07-02T09:44:14.424Z,0.90
2018-07-02T09:46:41.954Z,1.00
2018-07-02T09:49:09.529Z,1.37
2018-07-02T09:51:37.061Z,0.90
2018-07-02T09:54:04.888Z,0.90
2018-07-02T09:56:32.630Z,0.90
2018-07-02T09:59:00.238Z,0.90
2018-07-02T10:01:27.762Z,0.90
2018-07-02T10:03:55.374Z,1.03
2018-07-02T10:06:23.190Z,1.07
2018-07-02T10:08:50.869Z,1.00
2018-07-02T10:11:18.416Z,1.00
2018-07-02T10:13:46.013Z,0.97
2018-07-02T10:16:13.548Z,0.90
2018-07-02T10:18:41.144Z,1.10
2018-07-02T10:21:08.833Z,1.00
2018-07-02T10:23:37.337Z,1.10
2018-07-02T10:26:04.009Z,0.90
2018-07-02T10:28:31.920Z,1.00
2018-07-02T10:30:59.663Z,1.00
2018-07-02T10:33:27.188Z,1.07
2018-07-02T10:35:54.769Z,0.90
2018-07-02T10:38:22.360Z,1.00
2018-07-02T10:40:49.993Z,0.90
2018-07-02T10:43:17.456Z,0.80
2018-07-02T10:45:45.042Z,0.87
2018-07-02T10:48:12.580Z,0.80
2018-07-02T10:50:40.123Z,0.90
2018-07-02T10:53:07.648Z,1.20
2018-07-02T10:55:35.265Z,0.80
2018-07-02T10:58:02.915Z,1.00
2018-07-02T11:00:30.481Z,0.93
2018-07-02T11:02:58.037Z,0.83
2018-07-02T11:05:25.588Z,1.00
2018-07-02T11:07:53.141Z,1.10
2018-07-02T11:10:20.693Z,0.70
2018-07-02T11:12:48.248Z,0.80
2018-07-02T11:15:15.806Z,1.00
2018-07-02T11:17:43.372Z,0.90
2018-07-02T11:20:10.912Z,0.90
2018-07-02T11:22:38.558Z,0.80
2018-07-02T11:25:06.103Z,0.90
2018-07-02T11:27:33.639Z,0.80
2018-07-02T11:30:01.096Z,1.03
2018-07-02T11:32:28.674Z,0.90
2018-07-02T11:34:56.189Z,1.10
2018-07-02T11:37:23.754Z,1.00
2018-07-02T11:39:51.248Z,0.90
2018-07-02T11:42:18.787Z,1.20
2018-07-02T11:44:46.303Z,0.80
2018-07-02T11:47:13.803Z,1.20
2018-07-02T11:49:41.307Z,0.87
2018-07-02T11:52:08.824Z,0.83
2018-07-02T11:54:36.371Z,1.30
2018-07-02T11:57:03.940Z,0.87
2018-07-02T11:59:31.565Z,1.00
2018-07-02T12:01:59.136Z,0.77
2018-07-02T12:04:26.777Z,0.90
2018-07-02T12:06:54.298Z,0.90
2018-07-02T12:09:21.888Z,0.90
2018-07-02T12:11:49.428Z,0.80
2018-07-02T12:14:17.032Z,1.00
2018-07-02T12:16:44.567Z,0.90
2018-07-02T12:19:12.085Z,0.90
2018-07-02T12:21:39.627Z,1.13
2018-07-02T12:24:07.202Z,1.10
2018-07-02T12:26:34.993Z,0.90
2018-07-02T12:29:02.557Z,0.70
2018-07-02T12:31:30.213Z,0.90
2018-07-02T12:33:57.756Z,1.17
2018-07-02T12:36:25.316Z,0.80
2018-07-02T12:38:52.863Z,1.10
2018-07-02T12:41:20.525Z,0.80
2018-07-02T12:43:48.076Z,1.20
2018-07-02T12:46:15.638Z,0.77
2018-07-02T12:48:43.195Z,1.10
2018-07-02T12:51:10.775Z,0.87
2018-07-02T12:53:38.309Z,1.00
2018-07-02T12:56:05.877Z,0.90
2018-07-02T12:58:33.451Z,0.90
2018-07-02T13:01:01.000Z,1.00
2018-07-02T13:03:28.563Z,0.80
2018-07-02T13:05:56.197Z,0.90
2018-07-02T13:08:23.759Z,1.00
2018-07-02T13:10:51.294Z,1.17
2018-07-02T13:13:18.778Z,1.00
2018-07-02T13:15:46.328Z,1.20
2018-07-02T13:18:13.886Z,0.90
2018-07-02T13:20:41.486Z,1.20
2018-07-02T13:23:09.057Z,1.07
2018-07-02T13:25:36.622Z,0.90
2018-07-02T13:28:04.190Z,1.00
2018-07-02T13:31:34.866Z,0.90
2018-07-02T13:34:02.441Z,1.00
2018-07-02T13:36:29.975Z,1.10
2018-07-02T13:38:57.568Z,1.00
2018-07-02T13:41:25.136Z,1.00
2018-07-02T13:43:53.102Z,1.00
2018-07-02T13:46:20.633Z,1.03
2018-07-02T13:48:48.500Z,0.90
2018-07-02T13:51:16.146Z,1.10
2018-07-02T13:53:43.759Z,0.90
2018-07-02T13:56:11.361Z,0.90
2018-07-02T13:58:38.792Z,1.13
2018-07-02T14:01:07.800Z,1.00
2018-07-02T14:03:35.359Z,0.90
2018-07-02T14:06:02.913Z,1.00
2018-07-02T14:08:30.483Z,0.80
2018-07-02T14:10:58.065Z,1.00
2018-07-02T14:13:25.592Z,0.80
2018-07-02T14:15:53.259Z,1.10
2018-07-02T14:18:20.823Z,0.80
2018-07-02T14:20:48.572Z,0.90
2018-07-02T14:23:16.156Z,0.80
2018-07-02T14:25:43.725Z,1.10
2018-07-02T14:28:11.192Z,0.70
2018-07-02T14:30:38.840Z,0.90
2018-07-02T14:33:06.454Z,0.90
2018-07-02T14:35:33.956Z,0.80
2018-07-02T14:38:01.492Z,0.87
2018-07-02T14:40:29.055Z,0.90
2018-07-02T14:42:56.592Z,1.00
2018-07-02T14:45:24.386Z,1.10
2018-07-02T14:47:51.783Z,0.90
2018-07-02T14:50:19.361Z,1.07
2018-07-02T14:52:46.907Z,0.90
2018-07-02T14:55:14.448Z,0.90
2018-07-02T14:57:42.045Z,1.07
2018-07-02T15:00:09.649Z,0.90
2018-07-02T15:02:37.283Z,0.90
2018-07-02T15:05:05.384Z,1.10
2018-07-02T15:07:32.947Z,0.77
2018-07-02T15:10:00.494Z,1.10
2018-07-02T15:12:28.926Z,0.90
2018-07-02T15:14:56.477Z,1.13
2018-07-02T15:20:55.226Z,0.70
2018-07-02T15:23:22.764Z,0.80
2018-07-02T15:25:50.296Z,0.93
2018-07-02T15:28:17.874Z,0.80
2018-07-02T15:30:45.425Z,0.80
2018-07-02T15:33:12.964Z,0.93
2018-07-02T15:35:40.567Z,0.80
2018-07-02T15:38:08.125Z,1.20
2018-07-02T15:40:35.649Z,0.87
2018-07-02T15:43:03.268Z,0.90
2018-07-02T15:45:30.832Z,0.80
2018-07-02T15:47:58.372Z,0.90
2018-07-02T15:50:25.913Z,0.77
2018-07-02T15:52:54.667Z,1.00
2018-07-02T15:55:22.272Z,1.00
2018-07-02T15:57:49.843Z,0.90
2018-07-02T16:00:17.420Z,0.93
2018-07-02T16:02:44.958Z,0.87
2018-07-02T16:05:12.865Z,0.90
2018-07-02T16:07:40.457Z,0.80
2018-07-02T16:10:08.060Z,1.03
2018-07-02T16:12:35.624Z,0.87
2018-07-02T16:15:03.255Z,0.70
2018-07-02T16:17:30.810Z,1.00
2018-07-02T16:19:58.380Z,1.10
2018-07-02T16:22:26.194Z,1.10
2018-07-02T16:24:53.869Z,1.20
2018-07-02T16:27:21.413Z,1.20
2018-07-02T16:29:48.997Z,1.27
2018-07-02T16:32:16.595Z,1.30
2018-07-02T16:34:44.170Z,1.00
2018-07-02T16:37:11.728Z,0.90
2018-07-02T16:39:39.285Z,0.90
2018-07-02T16:42:06.881Z,0.90
2018-07-02T16:44:34.420Z,0.90
2018-07-02T16:47:01.988Z,1.03
2018-07-02T16:49:29.547Z,0.80
2018-07-02T16:51:57.109Z,0.87
2018-07-02T16:54:24.652Z,0.93
2018-07-02T16:56:52.350Z,0.90
2018-07-02T16:59:19.945Z,0.80
2018-07-02T17:01:47.593Z,0.90
2018-07-02T17:04:15.116Z,0.87
2018-07-02T17:06:42.749Z,0.80
2018-07-02T17:09:11.539Z,0.97
2018-07-02T17:11:39.737Z,0.70
2018-07-02T17:14:07.384Z,0.90
2018-07-02T17:16:35.007Z,0.90
2018-07-02T17:19:02.569Z,0.90
2018-07-02T17:21:30.156Z,0.80
2018-07-02T17:23:57.664Z,1.00
2018-07-02T17:26:25.605Z,0.90
2018-07-02T17:28:53.121Z,0.90
2018-07-02T17:31:20.664Z,0.90
2018-07-02T17:33:48.263Z,1.10
2018-07-02T17:36:15.789Z,0.97
2018-07-02T17:38:43.345Z,0.70
2018-07-02T17:41:10.855Z,0.97
2018-07-02T17:43:38.388Z,1.47
2018-07-02T17:46:05.967Z,4.60
2018-07-02T17:48:33.517Z,2.30
2018-07-02T17:51:01.104Z,2.00
2018-07-02T17:53:28.713Z,2.20
2018-07-02T17:55:56.245Z,3.43
2018-07-02T17:58:23.811Z,1.53
2018-07-02T18:00:51.336Z,1.73
2018-07-02T18:03:18.932Z,1.60
2018-07-02T18:05:46.541Z,1.30
2018-07-02T18:08:14.080Z,1.80
2018-07-02T18:10:41.681Z,2.80
2018-07-02T18:13:09.213Z,1.00
2018-07-02T18:15:36.809Z,2.70
2018-07-02T18:18:04.413Z,1.93
2018-07-02T18:20:31.896Z,0.90
2018-07-02T18:22:59.461Z,0.90
2018-07-02T18:25:27.028Z,0.80
2018-07-02T18:27:54.560Z,1.10
2018-07-02T18:30:22.138Z,0.80
2018-07-02T18:32:49.736Z,0.90
2018-07-02T18:35:17.309Z,0.80
2018-07-02T18:37:44.852Z,1.10
2018-07-02T18:40:12.386Z,1.00
2018-07-02T18:42:39.964Z,0.80
2018-07-02T18:45:07.643Z,1.00
2018-07-02T18:47:35.200Z,0.97
2018-07-02T18:50:02.845Z,0.60
2018-07-02T18:52:30.682Z,0.60
2018-07-02T18:54:58.948Z,1.10
2018-07-02T18:57:26.521Z,1.00
2018-07-02T18:59:54.095Z,1.00
2018-07-02T19:02:21.628Z,1.20
2018-07-02T19:04:49.168Z,1.07
2018-07-02T19:07:16.720Z,0.80
2018-07-02T19:09:44.333Z,0.97
2018-07-02T19:12:12.041Z,0.90
2018-07-02T19:14:39.560Z,0.90
2018-07-02T19:17:07.249Z,0.83
2018-07-02T19:19:34.781Z,1.00
2018-07-02T19:22:02.444Z,0.80
2018-07-02T19:24:30.051Z,0.90
2018-07-02T19:26:57.627Z,1.00
2018-07-02T19:29:25.180Z,0.87
2018-07-02T19:31:52.736Z,0.80
2018-07-02T19:34:20.214Z,0.83
2018-07-02T19:36:47.828Z,0.80
2018-07-02T19:39:15.467Z,0.97
2018-07-02T19:41:42.971Z,0.90
2018-07-02T19:44:11.265Z,0.80
2018-07-02T19:46:38.911Z,0.80
2018-07-02T19:49:06.524Z,0.77
2018-07-02T19:51:34.050Z,0.93
2018-07-02T19:54:02.036Z,1.03
2018-07-02T19:56:29.582Z,1.27
2018-07-02T19:58:57.080Z,0.90
2018-07-02T20:01:24.605Z,0.90
2018-07-02T20:03:52.144Z,1.07
2018-07-02T20:06:19.692Z,0.90
2018-07-02T20:08:47.217Z,0.80
2018-07-02T20:11:14.734Z,0.90
2018-07-02T20:13:42.275Z,1.00
2018-07-02T20:16:09.839Z,0.90
2018-07-02T20:18:37.440Z,1.30
2018-07-02T20:21:04.986Z,0.90
2018-07-02T20:23:32.529Z,1.23
2018-07-02T20:26:00.061Z,1.60
2018-07-02T20:28:27.612Z,1.30
2018-07-02T20:30:55.136Z,1.00
2018-07-02T20:33:22.625Z,1.00
2018-07-02T20:35:50.108Z,0.93
2018-07-02T20:38:17.653Z,1.30
2018-07-02T20:40:45.162Z,1.30
2018-07-02T20:43:12.603Z,1.13
2018-07-02T20:45:40.136Z,1.33
2018-07-02T20:48:07.708Z,1.30
2018-07-02T20:50:35.255Z,1.17
2018-07-02T20:53:02.813Z,1.30
2018-07-02T20:55:30.346Z,1.33
2018-07-02T20:57:58.012Z,1.50
2018-07-02T21:00:29.193Z,1.30
2018-07-02T21:02:57.284Z,1.30
2018-07-02T21:05:24.814Z,1.27
2018-07-02T21:07:52.358Z,1.00
2018-07-02T21:10:19.919Z,1.40
2018-07-02T21:12:47.456Z,1.23
2018-07-02T21:15:15.077Z,1.20
2018-07-02T21:17:42.633Z,1.27
2018-07-02T21:20:10.187Z,1.40
2018-07-02T21:22:37.732Z,1.27
2018-07-02T21:25:05.413Z,1.40
2018-07-02T21:27:32.953Z,1.17
2018-07-02T21:30:00.549Z,1.30
2018-07-02T21:32:28.125Z,1.10
2018-07-02T21:34:55.645Z,1.27
2018-07-02T21:37:23.172Z,1.40
2018-07-02T21:39:50.684Z,1.10
2018-07-02T21:42:18.284Z,1.50
2018-07-02T21:44:45.766Z,1.30
2018-07-02T21:47:13.305Z,1.30
2018-07-02T21:49:40.808Z,1.37
2018-07-02T21:52:08.303Z,1.30
2018-07-02T21:54:35.845Z,1.40
2018-07-02T21:57:03.399Z,1.77
2018-07-02T21:59:30.928Z,1.40
2018-07-02T22:01:58.458Z,1.60
2018-07-02T22:04:26.012Z,1.43
2018-07-02T22:06:53.520Z,1.40
2018-07-02T22:09:21.076Z,1.30
2018-07-02T22:11:48.680Z,1.60
2018-07-02T22:14:16.268Z,1.57
2018-07-02T22:16:43.780Z,1.43
2018-07-02T22:19:11.329Z,1.73
2018-07-02T22:21:38.844Z,1.57
2018-07-02T22:24:06.384Z,1.80
2018-07-02T22:26:35.569Z,1.60
2018-07-02T22:29:03.192Z,1.53
2018-07-02T22:31:30.710Z,1.50
2018-07-02T22:33:58.259Z,1.33
2018-07-02T22:36:25.804Z,1.70
2018-07-02T22:38:53.329Z,1.70
2018-07-02T22:41:20.840Z,1.57
2018-07-02T22:43:48.387Z,1.50
2018-07-02T22:46:15.900Z,1.77
2018-07-02T22:48:43.409Z,1.40
2018-07-02T22:51:10.960Z,1.53
2018-07-02T22:53:38.492Z,1.50
2018-07-02T22:56:06.049Z,1.50
2018-07-02T22:58:33.588Z,1.50
2018-07-02T23:01:01.522Z,1.77
2018-07-02T23:03:29.052Z,1.40
2018-07-02T23:05:56.952Z,1.50
2018-07-02T23:08:25.508Z,1.70
2018-07-02T23:10:53.088Z,1.40
2018-07-02T23:13:20.592Z,1.70
2018-07-02T23:15:48.136Z,1.57
2018-07-02T23:18:15.676Z,1.60
2018-07-02T23:20:43.196Z,2.00
2018-07-02T23:23:10.700Z,1.43
2018-07-02T23:25:38.225Z,1.40
2018-07-02T23:28:05.902Z,1.50
2018-07-02T23:30:33.568Z,1.73
2018-07-02T23:33:01.096Z,1.77
2018-07-02T23:35:28.703Z,1.80
2018-07-02T23:37:56.161Z,1.70
2018-07-02T23:40:24.592Z,1.50
2018-07-02T23:42:53.195Z,1.70
2018-07-02T23:45:21.557Z,1.87
2018-07-02T23:47:49.207Z,1.33
2018-07-02T23:50:16.809Z,1.50
2018-07-02T23:52:44.328Z,1.30
2018-07-02T23:55:11.950Z,1.50
2018-07-02T23:57:39.515Z,1.50
